Time;durP1;ratioP1;P1;durP2;ratioP2;P2;SDS_P1;SDS_P2;PMS_P1;PMS_P2;Temp;Humidity;BMP_temperature;BMP_pressure;BME280_temperature;BME280_humidity;BME280_pressure;Samples;Min_cycle;Max_cycle;Signal;HPM_P1;HPM_P2
2021/12/17 00:00:46;;;;;;;71.80;18.67;;;5.50;55.80;;;;;;20641;6813;121990;-85
2021/12/17 00:03:32;;;;;;;75.87;19.17;;;5.40;55.70;;;;;;20642;6830;118167;-85
2021/12/17 00:06:16;;;;;;;83.67;18.70;;;5.10;57.10;;;;;;20641;6819;118223;-86
2021/12/17 00:08:48;;;;;;;68.50;18.90;;;4.90;57.50;;;;;;20617;6819;123537;-86
2021/12/17 00:11:27;;;;;;;30.83;17.63;;;4.80;57.70;;;;;;20564;6841;119211;-85
2021/12/17 00:14:04;;;;;;;23.70;19.40;;;4.80;57.90;;;;;;20351;6826;314433;-85
2021/12/17 00:16:42;;;;;;;20.83;16.87;;;5.00;58.00;;;;;;20561;6838;121916;-85
2021/12/17 00:19:36;;;;;;;18.43;16.50;;;5.10;57.80;;;;;;20696;6798;117637;-85
2021/12/17 00:48:37;;;;;;;18.60;16.80;;;6.10;56.10;;;;;;20484;6798;312383;-84
2021/12/17 00:51:51;;;;;;;16.87;15.07;;;6.10;56.10;;;;;;20705;6797;124112;-84
2021/12/17 00:54:01;;;;;;;17.07;14.43;;;5.80;56.70;;;;;;20626;6854;117784;-84
2021/12/17 00:56:39;;;;;;;16.37;14.40;;;5.80;56.70;;;;;;20601;6813;118874;-84
2021/12/17 00:59:16;;;;;;;17.13;15.10;;;5.60;57.10;;;;;;20609;6813;120070;-84
2021/12/17 01:01:54;;;;;;;15.17;13.57;;;5.40;57.50;;;;;;20492;6860;118063;-84
2021/12/17 01:04:32;;;;;;;18.17;14.67;;;5.30;57.90;;;;;;20467;6846;120040;-84
2021/12/17 01:07:10;;;;;;;15.93;14.23;;;5.20;58.60;;;;;;20568;6841;117913;-85
2021/12/17 01:09:48;;;;;;;17.00;14.23;;;5.10;58.50;;;;;;20641;6813;117487;-85
2021/12/17 01:12:26;;;;;;;18.50;15.30;;;5.20;59.40;;;;;;20583;6832;118310;-85
2021/12/17 01:15:04;;;;;;;17.10;15.03;;;5.10;58.90;;;;;;20480;6813;120977;-85
2021/12/17 01:17:43;;;;;;;22.13;19.83;;;5.10;59.10;;;;;;20444;6815;283374;-85
2021/12/17 01:23:30;;;;;;;19.43;15.30;;;5.60;59.20;;;;;;19548;7193;127936;-85
2021/12/17 01:43:01;;;;;;;18.70;15.53;;;7.10;52.50;;;;;;19224;7273;122336;-86
2021/12/17 01:45:40;;;;;;;18.27;14.33;;;6.70;53.10;;;;;;19937;6983;119067;-86
2021/12/17 01:48:20;;;;;;;20.70;18.50;;;6.30;54.00;;;;;;20321;6842;313245;-85
2021/12/17 01:56:56;;;;;;;20.00;17.90;;;6.70;55.10;;;;;;20365;6825;308996;-86
2021/12/17 01:59:37;;;;;;;21.80;19.62;;;6.90;54.40;;;;;;20384;6825;314314;-86
2021/12/17 02:02:10;;;;;;;21.87;19.67;;;7.10;54.50;;;;;;20415;6815;313980;-86
2021/12/17 02:04:47;;;;;;;21.23;19.08;;;7.20;54.80;;;;;;20275;6820;283356;-86
2021/12/17 02:07:25;;;;;;;16.80;14.20;;;7.30;54.80;;;;;;20579;6834;119029;-86
2021/12/17 02:21:58;;;;;;;20.13;18.13;;;7.10;53.10;;;;;;20354;6835;296438;-88
2021/12/17 02:30:23;;;;;;;18.07;16.17;;;7.30;52.20;;;;;;20630;6816;118814;-87
2021/12/17 02:32:45;;;;;;;16.63;14.20;;;6.90;52.80;;;;;;20564;6872;121942;-87
2021/12/17 02:35:35;;;;;;;26.05;18.42;;;6.50;53.90;;;;;;20301;6816;314697;-87
2021/12/17 02:37:59;;;;;;;19.33;15.77;;;6.50;54.60;;;;;;20572;6835;116923;-87
2021/12/17 02:46:30;;;;;;;18.07;15.20;;;6.20;55.70;;;;;;20634;6816;118197;-88
2021/12/17 02:49:08;;;;;;;16.17;14.33;;;6.10;55.60;;;;;;20620;6816;120632;-87
2021/12/17 02:51:46;;;;;;;15.90;14.10;;;5.90;56.10;;;;;;20640;6813;120477;-88
2021/12/17 02:54:23;;;;;;;17.50;15.13;;;5.70;57.30;;;;;;20504;6831;120334;-87
2021/12/17 02:57:02;;;;;;;19.40;17.50;;;5.60;57.30;;;;;;20326;6835;281801;-87
2021/12/17 02:59:40;;;;;;;18.23;15.90;;;5.80;57.30;;;;;;20596;6828;121653;-90
2021/12/17 03:02:21;;;;;;;18.00;16.20;;;5.90;57.00;;;;;;20414;6816;338191;-87
2021/12/17 03:04:55;;;;;;;21.50;15.33;;;6.10;57.30;;;;;;20477;6813;121945;-87
2021/12/17 03:07:36;;;;;;;19.98;17.98;;;6.10;56.90;;;;;;20428;6816;311802;-87
2021/12/17 03:10:13;;;;;;;19.17;17.27;;;6.60;56.10;;;;;;20414;6816;343410;-87
2021/12/17 03:12:54;;;;;;;19.03;16.57;;;6.60;55.40;;;;;;20595;6816;120706;-87
2021/12/17 03:15:38;;;;;;;18.13;15.20;;;6.50;55.20;;;;;;20477;6816;120818;-87
2021/12/17 03:18:54;;;;;;;16.23;14.53;;;6.20;56.10;;;;;;20629;6816;117745;-87
2021/12/17 03:23:48;;;;;;;19.10;17.20;;;5.70;56.80;;;;;;20332;6831;299823;-87
2021/12/17 03:26:26;;;;;;;19.17;17.37;;;5.90;56.90;;;;;;20426;6811;297121;-87
2021/12/17 03:29:04;;;;;;;17.93;15.73;;;6.30;56.10;;;;;;20576;6879;119982;-87
2021/12/17 03:31:41;;;;;;;15.77;14.17;;;6.30;55.80;;;;;;20666;6811;118093;-87
2021/12/17 03:34:21;;;;;;;17.20;14.33;;;6.10;56.40;;;;;;20582;6811;119844;-87
2021/12/17 03:36:57;;;;;;;20.90;18.70;;;5.90;56.90;;;;;;20397;6811;339513;-87
2021/12/17 03:39:37;;;;;;;19.90;15.83;;;6.10;57.30;;;;;;20653;6811;118205;-87
2021/12/17 03:42:15;;;;;;;20.25;18.23;;;6.30;57.90;;;;;;20434;6811;314207;-87
2021/12/17 03:44:51;;;;;;;22.17;19.90;;;6.30;57.90;;;;;;20311;6811;291211;-87
2021/12/17 03:47:29;;;;;;;18.87;16.47;;;6.70;57.40;;;;;;20639;6811;121949;-87
2021/12/17 03:50:07;;;;;;;22.43;20.13;;;6.60;57.70;;;;;;20651;6811;117663;-87
2021/12/17 03:52:45;;;;;;;18.27;14.83;;;6.40;58.30;;;;;;20658;6811;122107;-87
2021/12/17 03:55:24;;;;;;;19.80;17.80;;;6.50;58.50;;;;;;20324;6811;312801;-87
2021/12/17 03:58:02;;;;;;;18.50;16.50;;;6.50;58.50;;;;;;20598;6811;122516;-87
2021/12/17 04:00:40;;;;;;;20.07;18.07;;;6.50;58.20;;;;;;20408;6811;279799;-87
2021/12/17 04:03:17;;;;;;;18.60;16.03;;;6.70;58.40;;;;;;20573;6828;120970;-87
2021/12/17 04:05:55;;;;;;;21.87;19.67;;;6.70;58.20;;;;;;20316;6842;310610;-87
2021/12/17 04:08:33;;;;;;;23.40;20.97;;;6.80;58.10;;;;;;20358;6842;312444;-87
2021/12/17 04:11:17;;;;;;;43.43;16.83;;;7.20;57.50;;;;;;20543;6835;119790;-87
2021/12/17 04:13:56;;;;;;;16.13;14.43;;;7.00;57.00;;;;;;20488;6850;120433;-87
2021/12/17 04:16:33;;;;;;;15.83;14.13;;;6.70;57.20;;;;;;20580;6831;122293;-88
2021/12/17 04:19:10;;;;;;;16.73;14.27;;;6.40;57.70;;;;;;20620;6816;122616;-87
2021/12/17 04:21:47;;;;;;;18.50;14.80;;;6.20;58.10;;;;;;20589;6827;118160;-88
2021/12/17 04:24:25;;;;;;;21.30;19.10;;;6.10;58.50;;;;;;20367;6816;281099;-88
2021/12/17 04:27:03;;;;;;;22.00;19.57;;;6.20;58.30;;;;;;20346;6812;309087;-87
2021/12/17 04:29:43;;;;;;;18.63;16.67;;;6.60;58.00;;;;;;20582;6831;121810;-89
2021/12/17 04:32:19;;;;;;;20.43;16.90;;;6.60;57.70;;;;;;20555;6837;118790;-87
2021/12/17 04:34:56;;;;;;;17.50;15.67;;;6.40;58.20;;;;;;20463;6831;119548;-87
2021/12/17 04:37:34;;;;;;;16.63;14.87;;;6.30;58.70;;;;;;20601;6827;118259;-88
2021/12/17 04:40:12;;;;;;;20.80;18.80;;;6.20;59.10;;;;;;20397;6827;338383;-88
2021/12/17 04:43:02;;;;;;;21.93;19.83;;;6.40;59.70;;;;;;20408;6827;291803;-88
2021/12/17 04:45:27;;;;;;;19.63;16.43;;;6.80;59.00;;;;;;20439;6827;121107;-87
2021/12/17 04:59:52;;;;;;;22.77;20.40;;;6.40;59.30;;;;;;20332;6811;281307;-87
2021/12/17 05:02:32;;;;;;;22.43;20.13;;;6.60;59.50;;;;;;20377;6811;280171;-88
2021/12/17 05:05:09;;;;;;;23.20;20.90;;;7.00;58.60;;;;;;20269;6811;316766;-88
2021/12/17 05:07:50;;;;;;;18.87;16.87;;;7.30;57.60;;;;;;20630;6811;118540;-87
2021/12/17 05:11:17;;;;;;;22.63;20.23;;;7.20;57.50;;;;;;20262;6811;282420;-87
2021/12/17 05:19:03;;;;;;;18.63;16.80;;;7.30;57.70;;;;;;20332;6828;309222;-88
2021/12/17 05:21:32;;;;;;;21.30;19.10;;;7.50;55.90;;;;;;20394;6826;311314;-87
2021/12/17 05:24:10;;;;;;;19.40;16.00;;;7.70;56.00;;;;;;20566;6811;117805;-89
2021/12/17 05:26:47;;;;;;;18.20;15.27;;;7.50;56.10;;;;;;20620;6813;118627;-88
2021/12/17 05:29:31;;;;;;;15.63;13.83;;;7.20;56.90;;;;;;20344;6869;70514;-88
2021/12/17 05:32:04;;;;;;;15.70;14.10;;;6.90;57.50;;;;;;20646;6816;119993;-86
2021/12/17 05:34:40;;;;;;;44.93;38.60;;;6.70;58.10;;;;;;20539;6816;120158;-86
2021/12/17 05:37:18;;;;;;;19.92;17.92;;;6.50;58.60;;;;;;20437;6812;341324;-85
2021/12/17 05:39:55;;;;;;;15.90;14.37;;;6.70;59.10;;;;;;20641;6816;121567;-87
2021/12/17 05:42:31;;;;;;;18.30;16.52;;;6.80;58.80;;;;;;20386;6831;281304;-88
2021/12/17 05:45:22;;;;;;;19.45;17.65;;;7.00;59.00;;;;;;20264;6887;311999;-84
2021/12/17 05:47:48;;;;;;;18.17;16.47;;;7.30;58.30;;;;;;20371;6835;282470;-85
2021/12/17 05:50:22;;;;;;;18.17;16.47;;;7.60;57.50;;;;;;20404;6831;280242;-85
2021/12/17 05:53:00;;;;;;;13.83;12.43;;;7.80;56.90;;;;;;20540;6829;118767;-88
2021/12/17 05:55:40;;;;;;;14.40;12.90;;;7.20;57.40;;;;;;20378;6959;70190;-86
2021/12/17 05:58:18;;;;;;;14.97;13.40;;;7.20;57.40;;;;;;20547;6853;117783;-85
2021/12/17 06:00:55;;;;;;;15.77;14.27;;;6.90;58.10;;;;;;20247;6900;338644;-85
2021/12/17 06:03:33;;;;;;;15.13;13.47;;;7.00;58.40;;;;;;20576;6829;118700;-86
2021/12/17 06:06:11;;;;;;;13.33;12.00;;;7.00;58.20;;;;;;20539;6898;117973;-87
2021/12/17 06:08:48;;;;;;;14.47;12.97;;;6.80;58.50;;;;;;20729;6801;118814;-86
2021/12/17 06:11:26;;;;;;;17.57;15.97;;;6.60;58.90;;;;;;20448;6812;307611;-85
2021/12/17 06:14:05;;;;;;;14.77;13.23;;;6.70;59.10;;;;;;20665;6802;120495;-85
2021/12/17 06:16:41;;;;;;;15.03;13.43;;;6.80;58.90;;;;;;20572;6836;120302;-85
2021/12/17 06:19:19;;;;;;;18.97;17.10;;;6.60;59.10;;;;;;20345;6846;283048;-85
2021/12/17 06:21:58;;;;;;;14.27;13.13;;;6.70;59.20;;;;;;20347;6845;309401;-86
2021/12/17 06:24:54;;;;;;;15.60;13.73;;;7.10;58.50;;;;;;19484;7187;70597;-87
2021/12/17 06:34:23;;;;;;;17.93;16.13;;;6.80;58.40;;;;;;17168;8074;326384;-86
2021/12/17 06:37:01;;;;;;;19.23;17.48;;;7.20;57.30;;;;;;18114;7534;364460;-87
2021/12/17 06:39:40;;;;;;;18.10;16.40;;;7.40;55.90;;;;;;19004;6873;299993;-84
2021/12/17 06:42:17;;;;;;;14.57;13.07;;;7.40;55.60;;;;;;20628;6827;117637;-84
2021/12/17 06:45:00;;;;;;;12.90;11.70;;;7.20;56.00;;;;;;20457;6826;123701;-83
2021/12/17 06:47:35;;;;;;;16.73;15.13;;;6.80;56.80;;;;;;20419;6822;343010;-84
2021/12/17 07:08:25;;;;;;;18.17;16.40;;;7.50;54.70;;;;;;20468;6802;279245;-87
2021/12/17 07:10:15;;;;;;;14.67;13.20;;;7.50;54.70;;;;;;20621;6868;117825;-87
2021/12/17 07:21:12;;;;;;;14.07;12.67;;;5.90;57.80;;;;;;20005;6867;120556;-86
2021/12/17 07:24:48;;;;;;;14.57;12.23;;;5.60;58.30;;;;;;20636;6867;119390;-86
2021/12/17 07:32:18;;;;;;;19.73;16.13;;;5.60;60.40;;;;;;20080;6865;120665;-86
2021/12/17 07:39:47;;;;;;;16.63;14.23;;;5.90;60.50;;;;;;20363;6881;117852;-86
2021/12/17 07:42:26;;;;;;;18.70;14.23;;;5.70;61.00;;;;;;20647;6872;117673;-87
2021/12/17 07:45:09;;;;;;;19.67;14.27;;;5.60;61.50;;;;;;20413;6844;119675;-85
2021/12/17 07:47:47;;;;;;;16.30;13.83;;;5.60;62.50;;;;;;20562;6894;118745;-84
2021/12/17 07:50:25;;;;;;;20.97;18.13;;;5.50;62.00;;;;;;20394;6831;308391;-84
2021/12/17 07:53:02;;;;;;;16.47;13.90;;;5.80;62.80;;;;;;20595;6812;118915;-85
2021/12/17 07:55:41;;;;;;;15.23;13.17;;;5.90;62.10;;;;;;20458;6925;118676;-86
2021/12/17 07:58:18;;;;;;;24.60;19.40;;;5.80;62.30;;;;;;20417;6827;310491;-86
2021/12/17 08:00:56;;;;;;;19.53;17.53;;;6.10;62.90;;;;;;20432;6812;311765;-86
2021/12/17 08:03:34;;;;;;;16.27;14.03;;;6.50;61.90;;;;;;20573;6817;118829;-86
2021/12/17 08:06:11;;;;;;;16.73;13.30;;;6.60;62.00;;;;;;20669;6800;118198;-86
2021/12/17 08:08:49;;;;;;;13.87;12.37;;;6.50;61.80;;;;;;20622;6855;117813;-87
2021/12/17 08:11:27;;;;;;;16.30;14.70;;;6.40;62.30;;;;;;20455;6802;312303;-85
2021/12/17 08:14:09;;;;;;;13.43;11.87;;;6.60;61.90;;;;;;20639;6797;117974;-85
2021/12/17 08:16:52;;;;;;;12.43;11.23;;;6.70;61.80;;;;;;20686;6797;124040;-85
2021/12/17 08:25:16;;;;;;;13.40;12.00;;;7.10;61.20;;;;;;20521;6827;122073;-86
2021/12/17 08:28:05;;;;;;;15.43;14.07;;;7.30;60.70;;;;;;20420;6827;343312;-84
2021/12/17 08:30:38;;;;;;;26.00;17.80;;;7.60;59.40;;;;;;20339;6906;282742;-82
2021/12/17 08:33:07;;;;;;;15.20;12.70;;;7.90;57.70;;;;;;20549;6845;119997;-85
2021/12/17 08:35:45;;;;;;;15.07;13.77;;;8.00;57.60;;;;;;20172;6902;312759;-85
2021/12/17 08:38:23;;;;;;;12.30;11.20;;;8.10;56.90;;;;;;20594;6853;118197;-88
2021/12/17 08:41:01;;;;;;;12.80;11.23;;;8.20;57.20;;;;;;20595;6827;120003;-86
2021/12/17 08:43:38;;;;;;;12.23;11.03;;;8.00;57.50;;;;;;20553;6839;117653;-85
2021/12/17 08:46:14;;;;;;;11.97;10.87;;;7.80;58.00;;;;;;20664;6810;120260;-86
2021/12/17 08:48:53;;;;;;;14.67;13.43;;;8.00;57.00;;;;;;20421;6814;280026;-86
2021/12/17 08:51:29;;;;;;;14.40;12.90;;;8.00;56.90;;;;;;20577;6838;118094;-85
2021/12/17 08:54:07;;;;;;;15.57;14.07;;;8.10;56.80;;;;;;20612;6809;120011;-86
2021/12/17 08:56:47;;;;;;;14.97;13.57;;;7.90;57.40;;;;;;20598;6831;118032;-86
2021/12/17 08:59:34;;;;;;;15.18;13.88;;;7.90;57.30;;;;;;20478;6827;340196;-88
2021/12/17 09:02:02;;;;;;;14.50;13.27;;;8.20;56.40;;;;;;20615;6829;118493;-89
2021/12/17 09:04:40;;;;;;;13.77;12.43;;;8.30;56.20;;;;;;20539;6817;120459;-89
2021/12/17 09:07:17;;;;;;;13.80;12.73;;;8.20;56.50;;;;;;20471;6807;339032;-85
2021/12/17 09:09:55;;;;;;;13.40;12.40;;;8.40;55.40;;;;;;20673;6809;117684;-85
2021/12/17 09:12:33;;;;;;;11.57;10.53;;;8.50;55.50;;;;;;20671;6812;118091;-85
2021/12/17 09:15:10;;;;;;;12.37;11.37;;;8.50;55.90;;;;;;20335;6802;342457;-86
2021/12/17 09:17:48;;;;;;;11.47;10.47;;;8.70;54.70;;;;;;20644;6815;118844;-85
2021/12/17 09:20:26;;;;;;;11.48;10.57;;;8.90;54.70;;;;;;20413;6827;340250;-85
2021/12/17 09:23:03;;;;;;;11.90;11.07;;;9.10;53.40;;;;;;20441;6812;312266;-85
2021/12/17 09:25:45;;;;;;;11.67;10.67;;;9.40;52.40;;;;;;20575;6797;117759;-85
2021/12/17 09:28:19;;;;;;;12.10;11.20;;;9.50;52.70;;;;;;20496;6797;308325;-86
2021/12/17 09:30:57;;;;;;;11.93;11.03;;;9.70;52.70;;;;;;20518;6797;306511;-86
2021/12/17 09:33:34;;;;;;;10.47;9.53;;;9.90;51.70;;;;;;20684;6797;117946;-85
2021/12/17 09:36:12;;;;;;;9.93;9.13;;;9.90;51.90;;;;;;20673;6812;121506;-86
2021/12/17 09:38:52;;;;;;;11.47;10.47;;;9.70;52.50;;;;;;20442;6812;309209;-85
2021/12/17 09:41:27;;;;;;;10.03;9.23;;;9.80;51.70;;;;;;20694;6812;118450;-88
2021/12/17 09:44:05;;;;;;;8.80;8.20;;;9.80;52.00;;;;;;20548;6839;117776;-87
2021/12/17 09:46:47;;;;;;;10.30;9.50;;;9.70;52.50;;;;;;20559;6842;117842;-85
2021/12/17 09:49:24;;;;;;;9.57;8.77;;;9.60;52.90;;;;;;20579;6838;120427;-85
2021/12/17 09:52:02;;;;;;;9.30;7.90;;;9.50;53.20;;;;;;20648;6816;117103;-85
2021/12/17 09:54:40;;;;;;;10.00;9.33;;;9.40;53.50;;;;;;20373;6797;341267;-86
2021/12/17 09:57:20;;;;;;;12.33;11.23;;;9.70;52.50;;;;;;20706;6802;117602;-86
2021/12/17 09:59:56;;;;;;;13.37;12.27;;;9.90;52.10;;;;;;20501;6802;278862;-88
2021/12/17 10:02:34;;;;;;;10.30;9.60;;;10.20;50.80;;;;;;20494;6802;298514;-86
2021/12/17 10:05:15;;;;;;;9.37;8.60;;;10.50;49.10;;;;;;20531;6802;117912;-85
2021/12/17 10:08:01;;;;;;;8.70;8.10;;;10.60;49.20;;;;;;20544;6862;67439;-85
2021/12/17 10:10:39;;;;;;;9.10;8.40;;;10.40;49.70;;;;;;20685;6813;67645;-85
2021/12/17 10:13:24;;;;;;;8.53;7.83;;;10.20;50.30;;;;;;20725;6802;67842;-85
2021/12/17 10:16:05;;;;;;;10.80;9.90;;;10.20;50.70;;;;;;20453;6832;116855;-84
2021/12/17 10:18:39;;;;;;;11.80;10.80;;;10.00;50.90;;;;;;20519;6880;118350;-85
2021/12/17 10:21:21;;;;;;;12.53;11.40;;;10.00;51.10;;;;;;20633;6823;118809;-85
2021/12/17 10:23:59;;;;;;;11.30;10.10;;;10.00;51.40;;;;;;20564;6827;118189;-85
2021/12/17 10:26:44;;;;;;;10.40;9.60;;;9.90;52.60;;;;;;20639;6817;118553;-86
2021/12/17 10:29:23;;;;;;;10.90;10.00;;;9.90;52.80;;;;;;20695;6802;118013;-85
2021/12/17 10:32:01;;;;;;;10.10;9.03;;;9.90;53.00;;;;;;20654;6817;120703;-84
2021/12/17 10:34:39;;;;;;;10.43;8.97;;;9.90;53.10;;;;;;20586;6829;119402;-83
2021/12/17 10:37:20;;;;;;;8.93;8.27;;;9.90;53.00;;;;;;20652;6831;114216;-85
2021/12/17 10:39:54;;;;;;;9.93;9.13;;;10.00;52.00;;;;;;20464;6932;117506;-88
2021/12/17 10:42:38;;;;;;;8.18;7.57;;;10.00;51.90;;;;;;20262;6867;342188;-93
2021/12/17 10:45:22;;;;;;;6.53;6.13;;;10.30;49.80;;;;;;20464;6824;124106;-85
2021/12/17 10:47:57;;;;;;;6.67;6.23;;;10.50;49.70;;;;;;20597;6871;118709;-88
2021/12/17 10:50:28;;;;;;;6.50;6.10;;;10.40;49.70;;;;;;20678;6811;117264;-88
2021/12/17 10:53:04;;;;;;;6.93;6.53;;;10.30;50.10;;;;;;20646;6854;120540;-86
2021/12/17 10:55:46;;;;;;;6.73;6.33;;;10.40;50.40;;;;;;20536;6796;118233;-86
2021/12/17 10:58:24;;;;;;;6.70;6.30;;;10.30;50.30;;;;;;20691;6788;120488;-87
2021/12/17 11:01:05;;;;;;;7.83;7.33;;;10.30;50.50;;;;;;20518;6814;123559;-85
2021/12/17 11:03:43;;;;;;;6.93;6.53;;;10.30;50.50;;;;;;20554;6826;118496;-86
2021/12/17 11:06:21;;;;;;;7.27;6.77;;;10.20;50.40;;;;;;20549;6851;120496;-85
2021/12/17 11:08:59;;;;;;;8.53;7.73;;;10.30;50.60;;;;;;20414;6819;318059;-87
2021/12/17 11:11:42;;;;;;;7.27;6.77;;;10.50;48.40;;;;;;20640;6816;117466;-86
2021/12/17 11:14:14;;;;;;;6.90;6.50;;;10.70;48.70;;;;;;20334;6834;342929;-84
2021/12/17 11:16:52;;;;;;;7.33;6.93;;;11.00;47.20;;;;;;20416;6815;340879;-86
2021/12/17 11:19:29;;;;;;;7.37;6.97;;;11.30;46.00;;;;;;20670;6800;119778;-86
2021/12/17 11:22:06;;;;;;;7.90;7.30;;;11.30;46.60;;;;;;20676;6800;122367;-86
2021/12/17 11:24:44;;;;;;;7.53;7.13;;;11.10;47.20;;;;;;20355;6800;280586;-86
2021/12/17 11:27:22;;;;;;;7.60;7.00;;;11.20;45.90;;;;;;20687;6798;119580;-86
2021/12/17 11:30:00;;;;;;;6.53;6.13;;;11.10;46.10;;;;;;20675;6813;119532;-83
2021/12/17 11:32:38;;;;;;;6.67;6.27;;;10.90;46.70;;;;;;20710;6813;123499;-84
2021/12/17 11:35:17;;;;;;;7.07;6.57;;;10.50;47.50;;;;;;20554;6813;119407;-84
2021/12/17 11:37:54;;;;;;;8.00;7.50;;;10.50;47.50;;;;;;20421;6804;310036;-86
2021/12/17 11:40:45;;;;;;;7.03;6.57;;;10.70;46.60;;;;;;20655;6819;68259;-87
2021/12/17 11:43:33;;;;;;;7.17;6.67;;;10.70;46.80;;;;;;20611;6819;118565;-83
2021/12/17 11:46:07;;;;;;;6.60;6.17;;;10.50;47.20;;;;;;20592;6819;121224;-82
2021/12/17 11:48:51;;;;;;;8.02;7.50;;;10.40;47.80;;;;;;20389;6819;333182;-83
2021/12/17 11:51:29;;;;;;;8.03;7.53;;;10.50;47.40;;;;;;20625;6819;121966;-83
2021/12/17 11:54:13;;;;;;;7.27;6.77;;;10.50;47.40;;;;;;20572;6819;118437;-83
2021/12/17 11:56:53;;;;;;;7.37;6.73;;;10.40;47.90;;;;;;20568;6828;121107;-83
2021/12/17 11:59:35;;;;;;;7.00;6.37;;;10.30;48.10;;;;;;20582;6831;119566;-83
2021/12/17 12:02:22;;;;;;;7.85;7.35;;;10.20;48.50;;;;;;20396;6826;282062;-83
2021/12/17 12:05:04;;;;;;;7.57;7.12;;;10.40;47.20;;;;;;20234;6816;327154;-82
2021/12/17 12:07:40;;;;;;;8.23;7.60;;;10.80;46.00;;;;;;20471;6798;338646;-82
2021/12/17 12:10:25;;;;;;;7.83;7.17;;;11.10;46.00;;;;;;20665;6803;117804;-82
2021/12/17 12:12:57;;;;;;;7.30;6.90;;;11.10;46.00;;;;;;20598;6816;118438;-85
2021/12/17 12:15:34;;;;;;;7.80;7.30;;;10.80;46.60;;;;;;20450;6816;120909;-84
2021/12/17 12:18:12;;;;;;;7.93;7.20;;;10.60;47.20;;;;;;20634;6806;121828;-84
2021/12/17 12:20:52;;;;;;;6.70;6.13;;;10.40;47.70;;;;;;20535;6835;125380;-84
2021/12/17 12:23:34;;;;;;;7.37;6.87;;;10.30;48.00;;;;;;20547;6835;122511;-84
2021/12/17 12:26:14;;;;;;;7.30;6.80;;;10.20;48.10;;;;;;20573;6833;117960;-86
2021/12/17 12:29:03;;;;;;;7.30;6.80;;;10.00;48.10;;;;;;20551;6834;118508;-85
2021/12/17 12:31:39;;;;;;;8.27;7.50;;;10.00;48.40;;;;;;20357;6834;308586;-85
2021/12/17 12:34:19;;;;;;;8.20;7.70;;;10.20;47.70;;;;;;20282;6864;315051;-86
2021/12/17 12:37:00;;;;;;;7.80;7.20;;;10.60;46.40;;;;;;20656;6795;119422;-85
2021/12/17 12:39:47;;;;;;;7.63;7.13;;;10.70;46.70;;;;;;20693;6795;121259;-86
2021/12/17 12:42:24;;;;;;;8.77;8.27;;;10.50;47.10;;;;;;20496;6861;310298;-87
2021/12/17 12:45:08;;;;;;;8.00;7.50;;;10.60;46.60;;;;;;20500;6804;121852;-86
2021/12/17 12:47:43;;;;;;;9.00;8.27;;;10.60;47.10;;;;;;20689;6795;117385;-85
2021/12/17 12:50:22;;;;;;;8.10;7.50;;;10.40;47.60;;;;;;20708;6810;68598;-83
2021/12/17 12:53:00;;;;;;;9.25;8.55;;;10.20;48.10;;;;;;20390;6810;311585;-82
2021/12/17 12:55:48;;;;;;;9.02;8.43;;;10.40;48.40;;;;;;20297;6819;340460;-86
2021/12/17 12:58:28;;;;;;;7.47;6.97;;;10.70;47.80;;;;;;20688;6791;117867;-82
2021/12/17 13:01:06;;;;;;;8.82;8.30;;;10.70;48.00;;;;;;20441;6791;338961;-83
2021/12/17 13:03:44;;;;;;;8.43;7.82;;;10.70;47.40;;;;;;20478;6791;310655;-82
2021/12/17 13:06:22;;;;;;;7.80;7.10;;;11.00;47.40;;;;;;20699;6790;118256;-82
2021/12/17 13:08:59;;;;;;;8.67;7.97;;;10.80;47.40;;;;;;20444;6790;278122;-82
2021/12/17 13:11:36;;;;;;;7.77;7.27;;;10.90;46.80;;;;;;20634;6806;118132;-83
2021/12/17 13:14:18;;;;;;;7.60;7.10;;;10.80;47.20;;;;;;20504;6834;120238;-81
2021/12/17 13:17:17;;;;;;;7.67;7.07;;;10.60;47.70;;;;;;20529;6837;117695;-82
2021/12/17 13:22:52;;;;;;;8.77;8.25;;;10.50;47.90;;;;;;20431;6822;311837;-82
2021/12/17 13:25:07;;;;;;;8.50;7.90;;;10.90;47.40;;;;;;20217;6881;312114;-83
2021/12/17 13:27:55;;;;;;;7.90;7.30;;;11.10;47.20;;;;;;20592;6842;121800;-83
2021/12/17 13:30:35;;;;;;;8.77;8.10;;;11.00;47.00;;;;;;20409;6827;282159;-84
2021/12/17 13:33:10;;;;;;;9.43;8.83;;;11.00;47.30;;;;;;20300;6849;339982;-84
2021/12/17 13:35:48;;;;;;;8.73;7.73;;;11.30;47.00;;;;;;20439;6878;118519;-83
2021/12/17 13:38:25;;;;;;;7.90;7.40;;;11.10;47.20;;;;;;20516;6852;122617;-83
2021/12/17 13:41:06;;;;;;;8.63;8.02;;;10.80;47.70;;;;;;20311;6849;311586;-84
2021/12/17 13:43:41;;;;;;;8.60;8.00;;;10.80;47.60;;;;;;20307;6852;313967;-84
2021/12/17 13:46:19;;;;;;;8.35;7.65;;;11.00;47.40;;;;;;20464;6827;279525;-85
2021/12/17 13:48:56;;;;;;;8.13;7.62;;;11.20;46.70;;;;;;20260;6844;297612;-84
2021/12/17 13:51:34;;;;;;;8.57;8.07;;;11.30;46.50;;;;;;20201;6889;285580;-82
2021/12/17 13:54:11;;;;;;;7.93;7.43;;;11.40;45.90;;;;;;20543;6837;120828;-84
2021/12/17 13:56:59;;;;;;;7.77;7.27;;;11.10;46.40;;;;;;20451;6790;336626;-83
2021/12/17 13:59:37;;;;;;;7.37;6.97;;;11.10;46.70;;;;;;20488;6789;338471;-84
2021/12/17 14:02:20;;;;;;;7.40;6.83;;;11.20;46.60;;;;;;20690;6796;120473;-82
2021/12/17 14:05:11;;;;;;;8.32;7.72;;;11.00;46.90;;;;;;20346;6809;309216;-83
2021/12/17 14:07:52;;;;;;;8.63;7.93;;;11.00;46.50;;;;;;20506;6780;340189;-86
2021/12/17 14:10:34;;;;;;;7.97;7.53;;;11.30;46.40;;;;;;20426;6799;310648;-84
2021/12/17 14:13:21;;;;;;;7.67;7.17;;;11.30;46.40;;;;;;20601;6822;119745;-84
2021/12/17 14:15:59;;;;;;;8.05;7.47;;;11.00;46.70;;;;;;20406;6810;307958;-84
2021/12/17 14:18:36;;;;;;;8.18;7.68;;;11.00;46.80;;;;;;20398;6829;280438;-84
2021/12/17 14:21:15;;;;;;;7.30;6.80;;;11.10;46.80;;;;;;20616;6811;118471;-83
2021/12/17 14:23:52;;;;;;;11.03;10.03;;;11.00;47.20;;;;;;20393;6811;283430;-85
2021/12/17 14:26:30;;;;;;;8.67;8.07;;;10.90;47.10;;;;;;20380;6822;310571;-87
2021/12/17 14:29:11;;;;;;;7.77;7.27;;;11.10;46.70;;;;;;20604;6817;117988;-86
2021/12/17 14:31:48;;;;;;;7.50;6.90;;;10.80;46.90;;;;;;20667;6799;118358;-86
2021/12/17 14:34:26;;;;;;;8.37;7.60;;;10.50;47.50;;;;;;20427;6794;296544;-88
2021/12/17 14:37:04;;;;;;;7.73;7.23;;;10.50;47.70;;;;;;20553;6784;276950;-89
2021/12/17 14:39:45;;;;;;;8.77;8.23;;;10.70;47.50;;;;;;20465;6802;284404;-87
2021/12/17 14:42:36;;;;;;;8.57;8.02;;;10.90;47.10;;;;;;20501;6784;308682;-85
2021/12/17 14:45:14;;;;;;;7.95;7.45;;;11.00;46.80;;;;;;20302;6794;317726;-85
2021/12/17 14:47:56;;;;;;;8.33;7.83;;;11.00;46.70;;;;;;20486;6794;305943;-85
2021/12/17 15:02:26;;;;;;;6.87;6.37;;;10.00;48.50;;;;;;20681;6795;117266;-87
2021/12/17 15:04:48;;;;;;;8.93;8.23;;;9.60;50.10;;;;;;20327;6853;280028;-86
2021/12/17 15:07:26;;;;;;;7.80;7.30;;;9.70;50.50;;;;;;20669;6806;120051;-86
2021/12/17 15:10:04;;;;;;;7.50;6.90;;;9.70;50.50;;;;;;20661;6809;117897;-87
2021/12/17 15:12:41;;;;;;;7.37;6.77;;;9.50;50.80;;;;;;20597;6824;120283;-87
2021/12/17 15:15:19;;;;;;;8.63;7.93;;;9.30;51.30;;;;;;20264;6834;343514;-86
2021/12/17 15:17:57;;;;;;;9.20;8.30;;;9.50;51.60;;;;;;20403;6834;117597;-87
2021/12/17 15:20:35;;;;;;;9.27;8.67;;;9.50;51.50;;;;;;20308;6884;307851;-89
2021/12/17 15:23:12;;;;;;;8.53;7.93;;;9.70;51.50;;;;;;20631;6818;118580;-88
2021/12/17 15:25:50;;;;;;;8.50;7.90;;;9.60;51.30;;;;;;20419;6891;117370;-85
2021/12/17 15:28:28;;;;;;;8.90;8.10;;;9.50;51.70;;;;;;20614;6815;117266;-85
2021/12/17 15:31:06;;;;;;;8.37;7.77;;;9.30;52.00;;;;;;20599;6871;121775;-87
2021/12/17 15:33:43;;;;;;;8.03;7.43;;;9.10;52.30;;;;;;20614;6815;120163;-87
2021/12/17 15:36:21;;;;;;;8.57;7.83;;;9.00;52.50;;;;;;20686;6809;118238;-86
2021/12/17 15:38:58;;;;;;;9.63;8.93;;;8.80;53.30;;;;;;20423;6824;309670;-87
2021/12/17 15:41:40;;;;;;;8.70;8.00;;;9.10;53.20;;;;;;20589;6846;117187;-86
2021/12/17 15:44:14;;;;;;;9.33;8.63;;;9.10;52.90;;;;;;20564;6815;117833;-84
2021/12/17 15:46:52;;;;;;;10.55;9.85;;;8.90;53.00;;;;;;20380;6802;281659;-85
2021/12/17 15:49:29;;;;;;;11.20;10.30;;;9.10;53.60;;;;;;20471;6797;337484;-86
2021/12/17 15:52:08;;;;;;;9.23;8.43;;;9.40;52.80;;;;;;20665;6804;116951;-85
2021/12/17 15:54:45;;;;;;;9.37;8.57;;;9.40;52.80;;;;;;20467;6815;120190;-86
2021/12/17 15:57:24;;;;;;;10.55;9.75;;;9.10;53.10;;;;;;20415;6810;309847;-85
2021/12/17 16:00:02;;;;;;;10.70;9.90;;;9.30;53.40;;;;;;20402;6830;310654;-86
2021/12/17 16:02:42;;;;;;;9.53;8.83;;;9.60;52.90;;;;;;20631;6815;117984;-84
2021/12/17 16:05:18;;;;;;;9.30;8.60;;;9.50;52.80;;;;;;20317;6815;310719;-85
2021/12/17 16:07:56;;;;;;;10.07;9.37;;;9.60;52.90;;;;;;20447;6804;338890;-88
2021/12/17 16:21:51;;;;;;;9.13;8.43;;;8.90;53.70;;;;;;20255;6884;117461;-84